Aeroporto :
LOGIN :

Iscrizione | Disclaimer

   EN    FR    IT 

 










Sommario :    VFR   VFR Marginale   IFR   IFR Intensivo   IFR Molto Intensivo
Visibilità : 
Base nubi : 
>= 8 km
>= 3000ft
5 / 8 km
1000 / 3000 ft
1500m / 5 km
500 / 1000 ft
800 / 1500m
200 / 500 ft
< 800m
< 200 ft
Simboli :   Temporali  Nebbia  Neve Forte  Precipitazioni Forti  Vento > 20 kt
SIGMETs :   Varie  Temporali  Ghiacco  Turbolenza  Onda orograficha  Ceneri Vulcaniche







- Altitudine del aeroporto : 74 ft
- Codice IATA : MRS
- Carte del aeroporto


LFML - Marseille / Marignane

ULTIMO METAR :
  • 181530Z AUTO 16007KT 9999 BKN037 13/05 Q1024 NOSIG

METARs OBSOLETI :
  • 181500Z AUTO 18007KT 150V210 9999 BKN038 BKN044 13/06 Q1024 NOSIG
  • 181430Z AUTO 16008KT 130V190 9999 BKN040 13/05 Q1024 NOSIG
  • 181400Z AUTO 15008KT 9999 OVC041 13/06 Q1024 NOSIG
  • 181330Z AUTO 15008KT 9999 FEW036 OVC042 14/06 Q1024 NOSIG
  • 181300Z AUTO 17010KT 9999 FEW036 BKN042 14/07 Q1024 NOSIG

TAF TAF LFML
Valido dal 18 a 15 ore il 19 a 21 ore UTC


181400Z 1815/1921 15010KT 9999 SCT040 TX14/1914Z TN05/1906Z
BECMG 1815/1817 CAVOK
BECMG 1817/1819 VRB03KT
BECMG 1819/1821 09006KT
BECMG 1901/1903 BKN030
BECMG 1904/1906 VRB03KT
PROB40
TEMPO 1904/1909 SCT035
BECMG 1909/1911 SCT033
BECMG 1911/1913 27007KT
BECMG 1916/1918 VRB03KT
ATIS : +33 4 42 31 15 15
Nessun NOTAM noto per questo aeroporto.



MetMap, La meteo Aeronautica in un colpo d'occhio ! - Copyright ORBIFLY Dicembre 2007 - Disclaimer

ORBIFLY MET'MAP TEAM :

Programmazione e sviluppo : Alexandra Zaïnal
Concezione e sviluppo : Baudouin d'Aumeries
Co-Programmazione e sviluppo : Marc-Olivier Méhu
Supporto tecnico e logistico : Manuel Goepfert
Aiuto per la traduzione : Arnaldo La Scala

Contatto : metmap@orbifly.com




FONTI E CREDITI :

   NOAA